Time;durP1;ratioP1;P1;durP2;ratioP2;P2;SDS_P1;SDS_P2;PMS_P1;PMS_P2;Temp;Humidity;BMP_temperature;BMP_pressure;BME280_temperature;BME280_humidity;BME280_pressure;Samples;Min_cycle;Max_cycle;Signal;HPM_P1;HPM_P2
2022/07/20 00:00:41;;;;;;;6.68;2.17;;;;;;;19.93;57.26;100976.28;4953377;28;20035;-75
2022/07/20 00:03:11;;;;;;;4.30;1.88;;;;;;;19.84;57.49;100964.84;4970821;28;20537;-75
2022/07/20 00:05:37;;;;;;;4.45;1.90;;;;;;;19.21;58.70;100949.47;4970540;28;20624;-75
2022/07/20 00:08:04;;;;;;;5.30;1.88;;;;;;;19.16;59.38;100973.88;4970905;28;20034;-72
2022/07/20 00:13:14;;;;;;;3.30;1.73;;;;;;;18.74;61.46;100942.00;4970344;28;20034;-74
2022/07/20 00:15:41;;;;;;;6.55;1.73;;;;;;;18.78;61.43;100954.28;4971539;28;20034;-75
2022/07/20 00:18:06;;;;;;;4.03;1.70;;;;;;;18.83;61.64;100962.16;4974084;28;20031;-75
2022/07/20 00:20:32;;;;;;;3.85;2.25;;;;;;;18.69;61.87;100954.16;4973904;28;20018;-76
2022/07/20 00:22:58;;;;;;;3.80;2.03;;;;;;;18.42;61.84;100898.94;4973909;28;20037;-76
2022/07/20 00:25:24;;;;;;;3.60;1.73;;;;;;;18.88;61.43;100958.72;4972779;28;20030;-75
2022/07/20 00:27:49;;;;;;;2.08;1.50;;;;;;;18.45;62.18;100905.94;4974000;28;20039;-75
2022/07/20 00:30:15;;;;;;;4.22;1.67;;;;;;;18.65;62.57;100929.69;4973720;28;20474;-75
2022/07/20 00:32:42;;;;;;;3.85;1.83;;;;;;;18.82;62.40;100949.97;4972744;28;20729;-75
2022/07/20 00:35:09;;;;;;;6.53;1.88;;;;;;;18.83;62.28;100954.31;4973925;28;20038;-75
2022/07/20 00:37:35;;;;;;;4.18;1.50;;;;;;;18.84;62.17;100943.88;4974015;28;20113;-75
2022/07/20 00:40:01;;;;;;;3.97;1.75;;;;;;;18.58;61.67;100873.84;4973357;28;20573;-76
2022/07/20 00:42:27;;;;;;;4.25;1.60;;;;;;;19.05;60.92;100927.56;4973782;28;20039;-75
2022/07/20 00:44:52;;;;;;;3.22;1.80;;;;;;;19.45;59.94;100961.06;4973611;28;20027;-75
2022/07/20 00:47:18;;;;;;;6.22;1.77;;;;;;;19.65;60.07;100958.59;4973828;28;20725;-75
2022/07/20 00:49:43;;;;;;;4.50;1.75;;;;;;;19.72;58.39;100930.69;4973429;28;20077;-76
2022/07/20 00:52:09;;;;;;;5.47;2.13;;;;;;;19.86;58.63;100941.28;4972078;28;20421;-75
2022/07/20 00:54:35;;;;;;;4.60;1.88;;;;;;;19.85;58.31;100918.56;4973756;28;20461;-76
2022/07/20 00:57:01;;;;;;;9.38;2.53;;;;;;;20.18;58.07;100946.69;4973213;28;20519;-73
2022/07/20 00:59:27;;;;;;;3.15;1.83;;;;;;;20.15;57.67;100946.69;4973432;28;20105;-75
2022/07/20 01:01:53;;;;;;;4.25;1.73;;;;;;;20.15;57.61;100951.94;4973570;28;20165;-73
2022/07/20 01:04:18;;;;;;;9.55;1.90;;;;;;;20.04;57.56;100945.75;4973390;28;20417;-74
2022/07/20 01:06:44;;;;;;;5.43;1.80;;;;;;;20.00;57.01;100930.88;4973415;28;20039;-73
2022/07/20 01:09:09;;;;;;;3.45;1.70;;;;;;;19.71;58.27;100877.44;4973401;28;20046;-75
2022/07/20 01:11:35;;;;;;;11.05;2.08;;;;;;;20.01;63.74;100927.38;4973087;28;20665;-75
2022/07/20 01:14:05;;;;;;;9.27;2.25;;;;;;;20.00;65.65;100905.56;4973310;28;20057;-74
2022/07/20 01:16:31;;;;;;;4.65;2.05;;;;;;;19.93;66.44;100905.53;4972882;28;20030;-74
2022/07/20 01:18:57;;;;;;;9.15;2.60;;;;;;;19.96;65.87;100923.88;4973177;28;20034;-74
2022/07/20 01:21:22;;;;;;;11.00;2.08;;;;;;;20.02;66.31;100937.88;4972674;28;20038;-74
2022/07/20 01:23:48;;;;;;;3.88;1.63;;;;;;;20.09;67.21;100930.94;4972822;28;20046;-74
2022/07/20 01:26:19;;;;;;;7.53;1.92;;;;;;;20.00;67.62;100909.91;4972176;28;20541;-75
2022/07/20 01:28:45;;;;;;;9.45;2.10;;;;;;;20.02;68.51;100931.75;4972745;28;20062;-78
2022/07/20 01:31:11;;;;;;;8.00;1.90;;;;;;;20.05;68.61;100926.56;4972704;28;20161;-72
2022/07/20 01:33:37;;;;;;;6.43;2.13;;;;;;;20.00;67.79;100915.16;4972991;28;20408;-74
2022/07/20 01:36:03;;;;;;;8.98;1.90;;;;;;;20.12;67.16;100925.69;4971362;28;20038;-75
2022/07/20 01:38:28;;;;;;;6.55;2.25;;;;;;;20.12;67.20;100922.22;4972294;28;20045;-74
2022/07/20 01:40:54;;;;;;;7.97;1.88;;;;;;;20.26;66.24;100930.13;4972857;28;20027;-75
2022/07/20 01:43:19;;;;;;;11.45;2.28;;;;;;;20.22;62.62;100910.03;4972770;28;20031;-75
2022/07/20 01:45:44;;;;;;;7.53;2.30;;;;;;;20.28;60.07;100920.53;4971376;28;20038;-74
2022/07/20 01:48:10;;;;;;;7.47;2.58;;;;;;;19.81;58.65;100854.78;4971131;28;20041;-74
2022/07/20 01:50:38;;;;;;;4.35;1.88;;;;;;;20.04;59.75;100911.69;4972530;28;20027;-74
2022/07/20 01:53:03;;;;;;;14.27;2.40;;;;;;;19.98;59.08;100927.38;4972213;28;20035;-75
2022/07/20 01:55:29;;;;;;;6.38;1.75;;;;;;;19.88;58.18;100932.56;4972249;28;20608;-75
2022/07/20 01:57:54;;;;;;;4.00;2.05;;;;;;;19.98;57.80;100930.88;4972590;28;20018;-74
2022/07/20 02:00:20;;;;;;;4.35;2.10;;;;;;;19.72;57.67;100883.53;4972357;28;20031;-76
2022/07/20 02:02:45;;;;;;;8.02;2.10;;;;;;;19.80;59.06;100933.34;4972241;28;20089;-74
2022/07/20 02:05:11;;;;;;;7.78;2.15;;;;;;;19.69;59.34;100941.16;4972130;28;20062;-74
2022/07/20 02:07:38;;;;;;;5.32;2.17;;;;;;;19.60;58.66;100923.63;4971994;28;20441;-73
2022/07/20 02:10:06;;;;;;;5.25;2.35;;;;;;;18.98;59.06;100820.19;4971623;28;20046;-74
2022/07/20 02:12:32;;;;;;;8.65;2.20;;;;;;;19.59;59.28;100919.25;4971800;28;20461;-74
2022/07/20 02:14:57;;;;;;;4.78;2.20;;;;;;;19.65;58.28;100935.00;4971686;28;20023;-73
2022/07/20 02:17:23;;;;;;;5.57;1.90;;;;;;;19.55;57.52;100934.06;4971790;28;20026;-73
2022/07/20 02:19:48;;;;;;;6.47;2.28;;;;;;;19.53;57.51;100935.78;4971913;28;20109;-74
2022/07/20 02:22:14;;;;;;;9.50;2.40;;;;;;;19.37;57.25;100928.69;4971473;28;20066;-73
2022/07/20 02:24:39;;;;;;;11.85;2.55;;;;;;;19.10;57.65;100905.78;4959271;28;20039;-74
2022/07/20 02:27:05;;;;;;;5.15;2.03;;;;;;;19.08;57.86;100924.09;4971733;28;20772;-74
2022/07/20 02:29:30;;;;;;;8.40;2.58;;;;;;;18.98;57.67;100901.28;4971452;28;20030;-73
2022/07/20 02:31:55;;;;;;;13.10;2.40;;;;;;;19.09;57.58;100923.22;4971833;28;20031;-76
2022/07/20 02:34:21;;;;;;;15.23;2.85;;;;;;;19.11;58.15;100931.09;4971897;28;20401;-73
2022/07/20 02:36:46;;;;;;;10.05;2.80;;;;;;;18.80;58.68;100878.44;4970875;28;20023;-74
2022/07/20 02:39:12;;;;;;;9.98;2.50;;;;;;;19.21;58.47;100930.28;4970950;28;20019;-74
2022/07/20 02:41:37;;;;;;;9.18;2.60;;;;;;;19.18;58.96;100922.44;4971872;28;20113;-73
2022/07/20 02:44:03;;;;;;;7.93;2.60;;;;;;;19.19;59.37;100942.47;4971481;28;20480;-74
2022/07/20 02:46:28;;;;;;;7.25;2.60;;;;;;;19.15;59.68;100941.59;4971509;28;20030;-76
2022/07/20 02:48:54;;;;;;;15.55;2.80;;;;;;;19.15;59.65;100931.13;4971690;28;20019;-74
2022/07/20 02:51:19;;;;;;;9.50;2.60;;;;;;;19.17;59.73;100939.00;4971350;28;20035;-74
2022/07/20 02:53:45;;;;;;;12.23;2.95;;;;;;;19.16;59.63;100940.72;4971350;28;20449;-74
2022/07/20 02:56:10;;;;;;;7.88;2.60;;;;;;;19.13;59.35;100935.47;4971103;28;20026;-75
2022/07/20 02:58:37;;;;;;;9.10;2.35;;;;;;;19.12;59.50;100938.94;4971420;28;20035;-73
2022/07/20 03:01:03;;;;;;;16.55;2.72;;;;;;;18.86;59.88;100899.41;4971160;28;20066;-75
2022/07/20 03:03:28;;;;;;;9.27;2.45;;;;;;;18.97;59.99;100941.44;4971570;28;20054;-73
2022/07/20 03:05:53;;;;;;;12.13;2.70;;;;;;;18.90;60.02;100949.22;4971141;28;20026;-73
2022/07/20 03:08:19;;;;;;;10.93;2.42;;;;;;;18.73;60.46;100948.13;4971216;28;20512;-73
2022/07/20 03:10:44;;;;;;;7.63;2.50;;;;;;;18.53;61.06;100938.31;4971448;28;20047;-74
2022/07/20 03:13:10;;;;;;;6.65;2.33;;;;;;;18.16;61.10;100893.41;4971299;28;20456;-72
2022/07/20 03:15:35;;;;;;;6.07;2.50;;;;;;;18.40;62.17;100946.84;4971285;28;20034;-73
2022/07/20 03:18:04;;;;;;;8.25;2.33;;;;;;;18.03;62.26;100897.63;4969789;28;20026;-72
2022/07/20 03:20:31;;;;;;;7.38;2.40;;;;;;;18.43;61.64;100962.59;4971347;28;20462;-74
2022/07/20 03:22:58;;;;;;;8.93;2.13;;;;;;;18.37;62.12;100965.13;4971502;28;20027;-74
2022/07/20 03:25:24;;;;;;;6.78;2.60;;;;;;;18.26;62.02;100954.53;4971465;28;20034;-74
2022/07/20 03:27:53;;;;;;;8.95;2.38;;;;;;;18.02;61.95;100913.25;4971251;28;20417;-74
2022/07/20 03:30:20;;;;;;;12.50;2.78;;;;;;;17.99;61.78;100908.88;4971575;28;20093;-73
2022/07/20 03:32:45;;;;;;;11.13;2.70;;;;;;;18.41;61.63;100956.44;4971678;28;20034;-75
2022/07/20 03:35:11;;;;;;;10.95;2.60;;;;;;;18.17;62.03;100926.53;4971524;28;20452;-74
2022/07/20 03:37:36;;;;;;;8.65;2.55;;;;;;;18.38;62.33;100970.38;4971498;28;20023;-78
2022/07/20 03:40:04;;;;;;;7.55;2.17;;;;;;;18.04;62.66;100907.19;4971129;28;20035;-74
2022/07/20 03:42:30;;;;;;;6.45;2.17;;;;;;;18.46;62.57;100965.22;4971076;28;20117;-74
2022/07/20 03:44:55;;;;;;;7.25;2.78;;;;;;;18.42;62.32;100956.47;4971145;28;20518;-73
2022/07/20 03:47:21;;;;;;;5.50;2.25;;;;;;;18.51;62.13;100960.06;4975174;28;20114;-73
2022/07/20 03:49:46;;;;;;;10.48;2.30;;;;;;;18.38;62.81;100961.63;4971499;28;20074;-74
2022/07/20 03:52:12;;;;;;;5.03;2.13;;;;;;;18.22;63.00;100952.75;4983175;28;20393;-72
2022/07/20 03:54:37;;;;;;;7.80;2.17;;;;;;;18.28;63.27;100971.13;4984883;28;20408;-74
2022/07/20 03:57:03;;;;;;;8.43;2.40;;;;;;;18.40;64.30;100980.84;4974767;28;20052;-74
2022/07/20 03:59:28;;;;;;;8.48;2.45;;;;;;;17.97;64.41;100918.44;4974851;28;20035;-75
2022/07/20 04:01:54;;;;;;;6.28;2.22;;;;;;;18.32;64.67;100985.97;4974859;28;20033;-76
2022/07/20 04:04:19;;;;;;;9.07;2.40;;;;;;;18.05;65.90;100991.69;4974917;28;20026;-74
2022/07/20 04:06:45;;;;;;;6.60;2.13;;;;;;;17.98;65.88;100988.13;4974747;28;20030;-74
2022/07/20 04:09:10;;;;;;;5.20;2.40;;;;;;;18.01;66.34;100984.66;4974860;28;20055;-71
2022/07/20 04:11:35;;;;;;;5.45;2.08;;;;;;;17.78;66.92;100964.25;4974698;28;20023;-73
2022/07/20 04:14:01;;;;;;;4.97;1.90;;;;;;;17.82;67.68;100980.84;4973253;28;20042;-74
2022/07/20 04:16:27;;;;;;;6.25;2.05;;;;;;;17.94;67.27;100986.28;4969546;28;20478;-72
2022/07/20 04:18:52;;;;;;;5.25;2.40;;;;;;;17.57;67.34;100903.03;4961976;28;20495;-73
2022/07/20 04:21:17;;;;;;;5.00;2.20;;;;;;;17.82;67.42;100939.97;4974649;28;20086;-73
2022/07/20 04:23:43;;;;;;;8.30;2.50;;;;;;;18.19;67.77;100989.25;4974441;28;20023;-73
2022/07/20 04:26:08;;;;;;;5.78;2.35;;;;;;;18.25;68.53;100979.75;4974357;28;20027;-73
2022/07/20 04:28:34;;;;;;;8.85;2.60;;;;;;;18.14;68.62;100947.38;4974430;28;20112;-73
2022/07/20 04:30:59;;;;;;;22.90;3.10;;;;;;;18.25;68.95;100990.22;4974705;28;20405;-73
2022/07/20 04:33:25;;;;;;;9.30;2.78;;;;;;;18.22;69.63;100986.72;4974173;28;20027;-73
2022/07/20 04:35:50;;;;;;;5.45;2.25;;;;;;;18.03;70.06;100964.66;4974563;28;20540;-73
2022/07/20 04:38:17;;;;;;;6.32;2.03;;;;;;;18.04;70.72;100985.56;4974390;28;20023;-72
2022/07/20 04:40:44;;;;;;;5.38;2.35;;;;;;;18.04;71.15;100982.09;4974334;28;20039;-73
2022/07/20 04:43:10;;;;;;;5.13;2.10;;;;;;;18.09;71.43;100983.94;4974197;28;20023;-74
2022/07/20 04:45:35;;;;;;;6.97;2.28;;;;;;;18.10;71.42;100966.50;4973869;28;20041;-73
2022/07/20 04:48:00;;;;;;;6.60;2.30;;;;;;;18.07;71.62;100966.47;4974023;28;20035;-73
2022/07/20 04:50:26;;;;;;;4.75;2.60;;;;;;;18.14;72.23;100993.56;4974379;28;20023;-73
2022/07/20 04:52:52;;;;;;;9.95;2.47;;;;;;;18.00;72.70;100975.94;4973983;28;20583;-73
2022/07/20 04:55:17;;;;;;;5.20;2.25;;;;;;;17.92;72.80;100952.28;4974258;28;20033;-73
2022/07/20 04:57:43;;;;;;;5.45;2.28;;;;;;;18.17;72.95;100989.25;4974067;28;20056;-72
2022/07/20 05:00:09;;;;;;;5.85;2.10;;;;;;;17.86;72.32;100931.31;4973776;28;20104;-73
2022/07/20 05:02:34;;;;;;;4.22;2.22;;;;;;;18.18;72.95;100975.34;4971573;28;20043;-73
2022/07/20 05:05:00;;;;;;;3.92;2.58;;;;;;;18.39;73.11;100989.53;4974093;28;20397;-73
2022/07/20 05:07:26;;;;;;;4.10;2.33;;;;;;;18.40;72.64;100981.69;4973981;28;20042;-73
2022/07/20 05:09:51;;;;;;;3.05;2.17;;;;;;;18.15;71.91;100911.69;4973784;28;20055;-73
2022/07/20 05:12:16;;;;;;;4.32;2.70;;;;;;;18.78;71.50;100980.44;4973792;28;20062;-73
2022/07/20 05:14:42;;;;;;;6.15;2.08;;;;;;;18.67;70.64;100928.00;4973896;28;20062;-76
2022/07/20 05:17:07;;;;;;;5.22;2.20;;;;;;;18.89;69.95;100938.66;4972518;28;20405;-73
2022/07/20 05:19:33;;;;;;;8.73;2.50;;;;;;;19.24;70.13;100983.56;4973655;28;20078;-74
2022/07/20 05:21:59;;;;;;;5.85;2.08;;;;;;;19.24;69.97;100974.84;4973786;28;20027;-74
2022/07/20 05:24:24;;;;;;;4.97;1.98;;;;;;;19.44;69.09;100988.09;4973350;28;20484;-73
2022/07/20 05:26:50;;;;;;;3.63;2.05;;;;;;;19.44;70.29;100984.59;4973296;28;20056;-73
2022/07/20 05:29:16;;;;;;;9.48;2.67;;;;;;;19.49;69.25;100981.16;4973585;28;20801;-73
2022/07/20 05:31:42;;;;;;;3.47;2.00;;;;;;;19.61;68.23;100975.13;4973211;28;20034;-72
2022/07/20 05:34:28;;;;;;;5.60;2.15;;;;;;;19.78;67.44;100988.34;4951520;29;20418;-73
2022/07/20 05:36:53;;;;;;;3.80;2.20;;;;;;;19.83;67.54;100989.28;4951610;29;20031;-74
2022/07/20 05:39:18;;;;;;;8.55;2.60;;;;;;;19.90;67.48;100987.63;4951783;29;20035;-73
2022/07/20 05:41:44;;;;;;;3.63;2.20;;;;;;;19.92;66.63;100959.66;4951505;29;20045;-72
2022/07/20 05:44:09;;;;;;;5.60;1.98;;;;;;;20.15;66.14;100983.41;4951336;29;20047;-73
2022/07/20 05:46:35;;;;;;;5.85;1.98;;;;;;;20.34;66.21;100978.25;4951429;29;20031;-73
2022/07/20 05:49:00;;;;;;;3.55;1.90;;;;;;;20.25;65.87;100936.25;4951533;29;20046;-73
2022/07/20 05:51:26;;;;;;;4.53;2.40;;;;;;;20.55;65.90;100959.09;4951262;29;20031;-73
2022/07/20 05:53:51;;;;;;;5.55;2.00;;;;;;;20.82;64.59;100962.69;4951436;29;20055;-73
2022/07/20 05:56:16;;;;;;;4.15;2.05;;;;;;;21.04;63.75;100975.88;4951329;29;20030;-74
2022/07/20 05:58:42;;;;;;;4.43;1.75;;;;;;;21.13;61.81;100960.13;4951247;29;20035;-73
2022/07/20 06:01:08;;;;;;;34.72;19.50;;;;;;;20.97;58.21;100918.13;4935215;29;20051;-73
2022/07/20 06:03:33;;;;;;;7.55;3.90;;;;;;;21.16;59.41;100942.63;4951053;29;20050;-72
2022/07/20 06:05:59;;;;;;;8.50;4.07;;;;;;;21.21;56.90;100961.03;4960114;28;20035;-74
2022/07/20 06:08:24;;;;;;;3.72;2.17;;;;;;;21.36;58.57;100970.66;4972452;28;20026;-74
2022/07/20 06:10:49;;;;;;;6.82;2.40;;;;;;;21.35;57.10;100958.41;4972832;28;20140;-74
2022/07/20 06:13:15;;;;;;;7.00;1.50;;;;;;;21.47;57.81;100971.53;4972419;28;20042;-73
2022/07/20 06:15:40;;;;;;;4.45;1.60;;;;;;;21.42;56.95;100962.78;4972879;28;20037;-74
2022/07/20 06:18:07;;;;;;;3.47;1.63;;;;;;;21.51;56.93;100961.91;4972733;28;20023;-74
2022/07/20 06:20:32;;;;;;;2.17;1.40;;;;;;;21.56;56.44;100965.44;4972769;28;20155;-73
2022/07/20 06:22:58;;;;;;;6.45;3.00;;;;;;;21.68;56.07;100963.69;4972320;28;20072;-74
2022/07/20 06:25:24;;;;;;;4.68;2.22;;;;;;;21.75;56.94;100965.44;4971798;28;20118;-73
2022/07/20 06:27:49;;;;;;;5.20;1.95;;;;;;;21.68;57.82;100959.28;4972345;28;20114;-73
2022/07/20 06:30:15;;;;;;;3.28;1.67;;;;;;;21.83;58.11;100947.00;4972344;28;20046;-74
2022/07/20 06:32:40;;;;;;;3.63;1.58;;;;;;;21.96;57.52;100961.88;4972414;28;20497;-73
2022/07/20 06:35:07;;;;;;;5.95;1.70;;;;;;;22.08;56.87;100967.13;4972618;28;20062;-74
2022/07/20 06:37:32;;;;;;;3.58;1.58;;;;;;;22.21;55.52;100953.94;4972285;28;20474;-74
2022/07/20 06:39:58;;;;;;;3.75;1.58;;;;;;;22.24;55.88;100960.06;4972448;28;20030;-74
2022/07/20 06:42:23;;;;;;;5.70;1.80;;;;;;;22.18;55.62;100930.25;4934346;29;20035;-74
2022/07/20 06:44:49;;;;;;;7.82;2.05;;;;;;;22.38;56.72;100946.88;4950479;29;20075;-74
2022/07/20 06:47:16;;;;;;;5.80;1.60;;;;;;;22.59;54.31;100945.91;4950494;29;20098;-73
2022/07/20 06:49:42;;;;;;;6.90;1.63;;;;;;;22.70;54.06;100944.97;4918331;29;20217;-73
2022/07/20 06:52:08;;;;;;;4.20;1.25;;;;;;;22.53;54.25;100890.69;4950284;29;20130;-74
2022/07/20 06:54:33;;;;;;;2.75;1.48;;;;;;;22.84;52.67;100919.44;4934264;29;20418;-73
2022/07/20 08:05:34;;;;;;;8.68;1.90;;;;;;;26.39;38.17;100909.31;4973085;28;20148;-74
2022/07/20 08:08:06;;;;;;;8.98;1.80;;;;;;;26.45;39.33;100912.66;4974957;28;20047;-74
2022/07/20 08:10:32;;;;;;;4.38;1.67;;;;;;;26.41;40.59;100912.78;4975035;28;20038;-74
2022/07/20 08:12:57;;;;;;;2.88;1.50;;;;;;;26.31;40.62;100897.09;4974727;28;20054;-74
2022/07/20 08:15:23;;;;;;;6.55;2.03;;;;;;;26.52;38.20;100900.19;4974719;28;20461;-74
2022/07/20 08:17:48;;;;;;;5.68;1.58;;;;;;;26.34;38.51;100848.50;4974802;28;20030;-74
2022/07/20 08:20:14;;;;;;;5.85;2.20;;;;;;;26.52;37.69;100863.13;4974658;28;20026;-74
2022/07/20 08:22:39;;;;;;;2.50;1.40;;;;;;;26.77;38.88;100908.47;4974872;28;20033;-72
2022/07/20 08:25:05;;;;;;;5.28;1.40;;;;;;;26.67;36.06;100887.47;4974840;28;20089;-73
2022/07/20 08:27:31;;;;;;;6.43;1.77;;;;;;;26.78;39.63;100888.13;4956216;28;20417;-75
2022/07/20 08:29:59;;;;;;;7.05;1.75;;;;;;;26.87;38.96;100877.31;4974639;28;20039;-73
2022/07/20 08:32:25;;;;;;;7.80;1.77;;;;;;;27.00;39.11;100880.53;4974535;28;20038;-74
2022/07/20 08:34:51;;;;;;;6.05;1.55;;;;;;;27.04;38.34;100876.91;4974064;28;20112;-73
2022/07/20 08:37:16;;;;;;;4.53;1.27;;;;;;;27.08;38.12;100886.53;4974013;28;20066;-75
2022/07/20 08:39:42;;;;;;;2.55;1.67;;;;;;;26.87;35.94;100840.25;4974345;28;20031;-73
2022/07/20 08:42:09;;;;;;;5.30;1.77;;;;;;;27.25;38.29;100894.06;4974178;28;20038;-74
2022/07/20 08:44:34;;;;;;;7.88;1.73;;;;;;;27.31;36.32;100885.06;4974320;28;20048;-72
2022/07/20 08:47:01;;;;;;;3.55;1.73;;;;;;;27.12;36.40;100835.16;4971417;28;20505;-72
2022/07/20 08:49:28;;;;;;;5.15;1.52;;;;;;;27.59;36.67;100892.28;4970432;28;20544;-73
2022/07/20 08:51:53;;;;;;;5.75;1.60;;;;;;;27.60;35.52;100879.00;4974086;28;20035;-78
2022/07/20 08:54:19;;;;;;;4.28;1.40;;;;;;;27.73;36.77;100863.59;4973891;28;20106;-73
2022/07/20 08:56:44;;;;;;;3.72;1.70;;;;;;;27.81;35.93;100866.03;4974027;28;20552;-75
2022/07/20 08:59:10;;;;;;;6.75;1.90;;;;;;;27.88;35.11;100857.00;4973979;28;20037;-74
2022/07/20 09:01:59;;;;;;;6.10;1.85;;;;;;;28.01;36.22;100862.78;4973870;28;20109;-72
2022/07/20 09:04:25;;;;;;;16.60;3.58;;;;;;;27.86;33.37;100815.50;4973870;28;20058;-74
2022/07/20 09:06:50;;;;;;;6.13;2.13;;;;;;;28.24;36.12;100851.53;4989899;28;20480;-73
2022/07/20 09:09:17;;;;;;;7.53;1.83;;;;;;;28.39;34.88;100841.38;4993417;28;20042;-73
2022/07/20 09:11:44;;;;;;;15.32;3.47;;;;;;;28.35;34.48;100842.34;4993555;28;20030;-76
2022/07/20 09:14:09;;;;;;;4.50;1.60;;;;;;;28.60;33.12;100847.78;4993347;28;20459;-76
2022/07/20 09:16:43;;;;;;;4.15;1.60;;;;;;;28.61;35.54;100836.22;4993056;28;20114;-74
2022/07/20 09:19:08;;;;;;;7.28;1.67;;;;;;;28.67;32.17;100843.13;4993085;28;20038;-77
2022/07/20 09:21:35;;;;;;;12.30;2.38;;;;;;;28.91;32.67;100846.78;4992957;28;20039;-74
2022/07/20 09:24:05;;;;;;;16.50;3.10;;;;;;;29.02;34.03;100819.84;4993000;28;20084;-73
2022/07/20 09:26:32;;;;;;;2.63;1.50;;;;;;;29.33;30.67;100848.03;4992792;28;20400;-73
2022/07/20 09:28:59;;;;;;;21.27;3.47;;;;;;;29.52;32.41;100843.81;4992763;28;20026;-74
2022/07/20 09:31:27;;;;;;;17.15;3.50;;;;;;;29.69;29.88;100831.66;4992852;28;20521;-72
2022/07/20 09:33:59;;;;;;;9.50;2.55;;;;;;;29.77;30.64;100842.91;4992790;28;20468;-72
2022/07/20 09:36:27;;;;;;;10.68;2.55;;;;;;;29.76;28.59;100821.66;4975212;28;20030;-72
2022/07/20 09:38:53;;;;;;;26.87;4.70;;;;;;;30.01;32.26;100832.28;4992601;28;20022;-76
2022/07/20 09:41:27;;;;;;;7.18;1.90;;;;;;;30.11;30.08;100828.31;4992676;28;20076;-73
2022/07/20 09:43:53;;;;;;;4.45;2.10;;;;;;;29.92;29.42;100790.03;4992266;28;20029;-72
2022/07/20 09:46:24;;;;;;;5.72;1.60;;;;;;;30.29;29.26;100820.53;4992504;28;20485;-76
2022/07/20 09:48:54;;;;;;;7.20;1.73;;;;;;;30.31;28.77;100824.00;4992091;28;20065;-75
2022/07/20 09:51:29;;;;;;;21.48;4.90;;;;;;;30.53;28.33;100818.72;4992275;28;20035;-78
2022/07/20 09:54:03;;;;;;;6.18;1.70;;;;;;;30.32;29.86;100777.81;4991581;28;20026;-73
2022/07/20 09:56:29;;;;;;;5.63;2.00;;;;;;;30.71;27.90;100821.53;4991940;28;20681;-77
2022/07/20 09:58:57;;;;;;;5.45;1.60;;;;;;;30.78;28.00;100823.88;4992291;28;20034;-73
2022/07/20 10:01:29;;;;;;;6.55;1.60;;;;;;;30.76;26.93;100809.75;4990506;28;20597;-71
2022/07/20 10:03:57;;;;;;;3.17;2.00;;;;;;;30.89;28.42;100814.56;4981964;28;20472;-73
2022/07/20 10:06:26;;;;;;;8.40;2.45;;;;;;;31.03;28.51;100816.63;4972040;28;20050;-73
2022/07/20 10:08:52;;;;;;;9.20;2.55;;;;;;;31.09;25.75;100814.59;4972101;28;20027;-73
2022/07/20 10:11:19;;;;;;;5.88;2.03;;;;;;;30.78;28.57;100757.25;4972374;28;20038;-76
2022/07/20 10:13:48;;;;;;;5.60;1.73;;;;;;;31.04;27.60;100792.59;4972301;28;20768;-72
2022/07/20 10:16:30;;;;;;;13.50;2.47;;;;;;;31.12;26.68;100785.13;4972187;28;20147;-74
2022/07/20 10:18:56;;;;;;;7.07;1.48;;;;;;;31.44;29.53;100797.94;4972033;28;20046;-73
2022/07/20 10:21:42;;;;;;;5.43;1.58;;;;;;;31.54;29.26;100788.59;4971434;28;20409;-73
2022/07/20 10:24:30;;;;;;;24.30;5.32;;;;;;;31.56;29.23;100791.19;4973342;28;20034;-73
2022/07/20 10:27:25;;;;;;;8.52;1.75;;;;;;;31.51;27.49;100779.88;4965748;28;20066;-72
2022/07/20 10:29:54;;;;;;;7.72;2.05;;;;;;;31.57;28.63;100776.91;4971862;28;20039;-73
2022/07/20 10:32:28;;;;;;;5.95;1.45;;;;;;;31.66;28.44;100765.84;4971786;28;20099;-73
2022/07/20 10:35:02;;;;;;;4.00;2.03;;;;;;;31.68;26.09;100760.41;4971742;28;20027;-74
2022/07/20 10:37:29;;;;;;;11.43;2.17;;;;;;;31.69;28.84;100770.16;4970358;28;20035;-74
2022/07/20 10:39:57;;;;;;;3.63;1.50;;;;;;;31.57;26.96;100720.88;4971621;28;20154;-75
2022/07/20 10:42:28;;;;;;;4.88;1.70;;;;;;;31.98;27.00;100760.78;4971427;28;20485;-72
2022/07/20 10:44:54;;;;;;;5.82;1.67;;;;;;;32.19;26.68;100757.97;4971127;28;20088;-68
2022/07/20 10:47:42;;;;;;;4.55;1.50;;;;;;;32.38;27.25;100761.50;4969949;28;20417;-69
2022/07/20 10:50:10;;;;;;;4.18;1.65;;;;;;;32.43;26.53;100746.09;4968971;28;20041;-72
2022/07/20 10:52:36;;;;;;;3.08;1.40;;;;;;;32.31;25.83;100701.31;4969789;28;20038;-74
2022/07/20 10:55:04;;;;;;;7.63;2.10;;;;;;;32.62;26.43;100744.31;4970953;28;20030;-72
2022/07/20 10:57:31;;;;;;;19.05;3.70;;;;;;;32.91;25.53;100742.81;4952647;28;20516;-72
2022/07/20 11:00:06;;;;;;;6.15;2.13;;;;;;;32.94;26.31;100725.75;4969925;28;20030;-74
2022/07/20 11:02:33;;;;;;;3.05;1.40;;;;;;;33.04;26.40;100741.22;4952505;28;20474;-71
2022/07/20 11:04:59;;;;;;;6.72;1.83;;;;;;;33.10;25.48;100731.16;4969206;28;20125;-72
2022/07/20 11:07:33;;;;;;;4.57;1.33;;;;;;;33.21;24.46;100728.75;4968800;28;20118;-73
2022/07/20 11:09:59;;;;;;;5.03;1.75;;;;;;;33.40;24.46;100712.59;4968321;28;20089;-72
2022/07/20 11:12:29;;;;;;;24.83;4.22;;;;;;;33.50;25.39;100726.34;4968267;28;20030;-76
2022/07/20 11:14:56;;;;;;;9.13;2.00;;;;;;;33.60;24.94;100732.03;4969795;28;20037;-76
2022/07/20 11:17:22;;;;;;;4.10;1.40;;;;;;;33.51;24.16;100696.81;4969569;28;20048;-76
2022/07/20 11:19:48;;;;;;;5.75;1.50;;;;;;;33.72;24.86;100707.25;4970334;28;20069;-74
2022/07/20 11:22:14;;;;;;;6.10;1.77;;;;;;;33.82;23.68;100705.81;4970245;28;20038;-73
2022/07/20 11:24:40;;;;;;;9.57;2.13;;;;;;;33.97;23.80;100701.41;4969900;28;20039;-75
2022/07/20 11:27:15;;;;;;;7.53;1.70;;;;;;;34.00;23.21;100684.28;4970568;28;20031;-72
2022/07/20 11:29:46;;;;;;;3.40;1.50;;;;;;;34.22;23.37;100718.72;4970581;28;20045;-70
2022/07/20 11:32:12;;;;;;;3.47;1.60;;;;;;;34.15;25.09;100709.31;4970274;28;20030;-72
2022/07/20 11:34:52;;;;;;;5.30;1.48;;;;;;;33.76;25.18;100716.84;4970527;28;20042;-74
2022/07/20 11:37:19;;;;;;;4.22;1.70;;;;;;;33.46;24.89;100711.38;4970659;28;20027;-74
2022/07/20 11:39:45;;;;;;;4.80;1.30;;;;;;;33.36;25.00;100706.56;4967653;28;20521;-71
2022/07/20 11:42:15;;;;;;;7.70;1.80;;;;;;;33.05;26.58;100660.06;4970954;28;20031;-71
2022/07/20 11:44:58;;;;;;;2.92;1.23;;;;;;;33.48;24.32;100685.41;4970618;28;20508;-71
2022/07/20 11:47:23;;;;;;;6.50;1.73;;;;;;;33.52;25.78;100662.88;4971438;28;20034;-72
2022/07/20 11:50:06;;;;;;;3.38;1.40;;;;;;;33.79;24.69;100691.72;4970268;28;20039;-71
2022/07/20 11:52:40;;;;;;;4.82;1.50;;;;;;;33.52;24.86;100641.44;4970115;28;20516;-73
2022/07/20 11:55:06;;;;;;;5.68;1.80;;;;;;;33.81;25.82;100658.53;4970053;28;20030;-72
2022/07/20 11:57:32;;;;;;;4.38;1.60;;;;;;;33.85;25.26;100689.56;4971237;28;20034;-73
2022/07/20 11:59:58;;;;;;;4.93;1.88;;;;;;;33.75;24.71;100674.06;4970031;28;20031;-73
2022/07/20 12:02:24;;;;;;;3.15;1.65;;;;;;;34.02;23.88;100677.88;4970291;28;20026;-72
2022/07/20 12:04:50;;;;;;;5.20;1.80;;;;;;;34.30;24.79;100686.13;4970152;28;20023;-72
2022/07/20 12:10:15;;;;;;;9.18;2.38;;;;;;;34.20;24.80;100667.03;4970122;28;20517;-78
2022/07/20 12:12:47;;;;;;;4.78;1.60;;;;;;;34.21;22.63;100658.03;4972621;28;20054;-70
2022/07/20 12:15:14;;;;;;;6.22;1.90;;;;;;;34.33;23.78;100662.66;4973772;28;20497;-73
2022/07/20 12:17:53;;;;;;;2.97;1.77;;;;;;;34.62;22.62;100668.09;4974069;28;20397;-74
2022/07/20 12:20:22;;;;;;;8.05;2.10;;;;;;;34.39;23.63;100674.84;4975866;28;20496;-70
2022/07/20 12:22:54;;;;;;;5.03;2.00;;;;;;;34.58;23.06;100668.38;4973920;28;20031;-71
2022/07/20 12:25:20;;;;;;;15.27;2.63;;;;;;;34.69;24.45;100655.19;4973553;28;20481;-78
2022/07/20 12:27:46;;;;;;;6.35;1.88;;;;;;;34.62;24.69;100651.13;4973393;28;20069;-75
2022/07/20 12:30:34;;;;;;;3.90;1.58;;;;;;;34.77;21.88;100658.25;4973929;28;20030;-70
2022/07/20 12:33:14;;;;;;;5.38;1.58;;;;;;;34.81;22.86;100643.69;4973765;28;20031;-70
2022/07/20 12:35:46;;;;;;;4.47;1.70;;;;;;;34.63;21.94;100648.38;4973283;28;20027;-72
2022/07/20 12:38:13;;;;;;;13.65;2.63;;;;;;;34.28;23.52;100645.13;4974387;28;20018;-72